Announcements:
The rain gauge is not working and precipitation will be manually updated. Email Mr. Reynolds

Nearby METAR Reports

 

KMIC - Crystal, Minnesota, USA
Distance from station: N 7mi, 16km
Updated: Sun, 04/14/2024 9:53pm CDT
Clear
Clear
 Wind from calm
Wind: Calm
Temperature: 54°F, 12°C
Dew Point: 32°F, 0°C
Humidity: 44%
Barometer: 29.90 inHg, 1012.5 hPa
Clouds: Clear
Visibility: 10 miles, 16 km
2024/04/15 02:53 KMIC 150253Z 00000KT 10SM CLR 12/00 A2990 RMK AO2 SLP125 T01170000 53013
KANE - Anoka-Blaine, Minnesota, USA
Distance from station: NE 16mi, 27km
Updated: Sun, 04/14/2024 9:55pm CDT
Clear
Clear
 Wind from calm
Wind: Calm
Temperature: 55°F, 13°C
Dew Point: 28°F, -2°C
Humidity: 36%
Barometer: 29.91 inHg, 1012.9 hPa
Clouds: Clear
Visibility: 10 miles, 16 km
2024/04/15 02:55 KANE 150255Z AUTO 00000KT 10SM CLR 13/M02 A2991 RMK AO2
KFCM - Flying Cloud-Eden Prairie, Minnesota, USA
Distance from station: SW 17mi, 28km
Updated: Sun, 04/14/2024 9:53pm CDT
Clear
Clear
 Wind from NW
Wind: NW 6 mph, 9 km/h
Temperature: 61°F, 16°C
Dew Point: 28°F, -2°C
Humidity: 29%
Barometer: 29.90 inHg, 1012.5 hPa
Clouds: Clear
2024/04/15 02:53 KFCM 150253Z AUTO 32005KT CLR 16/M02 A2990 RMK AO2 SLP122 T01611017 53009 $
 
KMSP - Minneapolis-St. Paul, Minnesota, USA
Distance from station: SE 16mi, 27km
Updated: Sun, 04/14/2024 9:53pm CDT
Clear
Clear
 Wind from NNE
Wind: NNE 7 mph, 11 km/h
Temperature: 59°F, 15°C
Dew Point: 30°F, -1°C
Humidity: 34%
Barometer: 29.91 inHg, 1012.9 hPa
Clouds: Clear
Visibility: 10 miles, 16 km
2024/04/15 02:53 KMSP 150253Z 02006KT 10SM CLR 15/M01 A2991 RMK AO2 SLP127 T01501006 53012
KRST - Rochester, Minnesota, USA
Distance from station: SE 99mi, 159km
Updated: Sun, 04/14/2024 9:54pm CDT
Clear
Clear
 Wind from N
Wind: N 6 mph, 9 km/h
Temperature: 57°F, 14°C
Dew Point: 27°F, -3°C
Humidity: 31%
Barometer: 29.91 inHg, 1012.9 hPa
Clouds: Clear
Visibility: 10 miles, 16 km
2024/04/15 02:54 KRST 150254Z 35005KT 10SM CLR 14/M03 A2991 RMK AO2 SLP125 T01391033 53015
KSGS - Fleming/St Paul, Minnesota, USA
Distance from station: E 23mi, 37km
Updated: Sun, 04/14/2024 9:55pm CDT
Clear
Clear
 Wind from calm
Wind: Calm
Temperature: 55°F, 13°C
Dew Point: 32°F, 0°C
Humidity: 41%
Barometer: 29.91 inHg, 1012.9 hPa
Clouds: Clear
Visibility: 10 miles, 16 km
2024/04/15 02:55 KSGS 150255Z AUTO 00000KT 10SM CLR 13/00 A2991 RMK AO2 T01310003
 
KDLH - Duluth, Minnesota, USA
Distance from station: NNE 164mi, 265km
Updated: Sun, 04/14/2024 9:55pm CDT
Clear
Clear
 Wind from WNW
Wind: WNW 8 mph, 13 km/h
Temperature: 54°F, 12°C
Dew Point: 25°F, -4°C
Humidity: 33%
Barometer: 29.88 inHg, 1011.9 hPa
Clouds: Clear
Visibility: 10 miles, 16 km
2024/04/15 02:55 KDLH 150255Z 30007KT 10SM CLR 12/M04 A2988 RMK AO2 SLP123 T01221039 53015 $
KBRD - Brainard, Minnesota, USA
Distance from station: NNW 127mi, 25km
Updated: Sun, 04/14/2024 9:53pm CDT
Clear
Clear
 Wind from N
Wind: N 5 mph, 7 km/h
Temperature: 54°F, 12°C
Dew Point: 28°F, -2°C
Humidity: 38%
Barometer: 29.92 inHg, 1013.2 hPa
Clouds: Clear
Visibility: 10 miles, 16 km
2024/04/15 02:53 KBRD 150253Z AUTO 36004KT 10SM CLR 12/M02 A2992 RMK AO2 SLP136 T01171017 53014 $